createdAt,value
2019-03-18T00:00:11.075Z,79.40
2019-03-18T00:01:11.071Z,79.40
2019-03-18T00:02:11.056Z,79.40
2019-03-18T00:03:11.045Z,79.50
2019-03-18T00:04:11.052Z,78.78
2019-03-18T00:05:11.025Z,78.99
2019-03-18T00:06:11.011Z,79.30
2019-03-18T00:07:11.008Z,78.99
2019-03-18T00:08:11.008Z,78.67
2019-03-18T00:09:10.995Z,78.99
2019-03-18T00:10:10.981Z,78.99
2019-03-18T00:11:10.987Z,78.88
2019-03-18T00:12:10.945Z,78.88
2019-03-18T00:13:10.938Z,78.57
2019-03-18T00:14:10.923Z,78.67
2019-03-18T00:15:10.926Z,78.78
2019-03-18T00:16:10.920Z,78.67
2019-03-18T00:17:10.980Z,78.88
2019-03-18T00:18:10.886Z,78.67
2019-03-18T00:19:10.873Z,78.57
2019-03-18T00:20:10.859Z,79.09
2019-03-18T00:21:10.853Z,78.88
2019-03-18T00:22:10.843Z,78.67
2019-03-18T00:23:10.828Z,78.71
2019-03-18T00:24:10.834Z,78.67
2019-03-18T00:25:10.813Z,78.57
2019-03-18T00:26:10.803Z,78.99
2019-03-18T00:27:10.795Z,78.88
2019-03-18T00:28:10.777Z,78.47
2019-03-18T00:29:10.761Z,78.47
2019-03-18T00:30:10.753Z,78.57
2019-03-18T00:31:10.751Z,78.99
2019-03-18T00:32:10.739Z,78.47
2019-03-18T00:33:10.750Z,78.47
2019-03-18T00:34:10.750Z,78.57
2019-03-18T00:35:10.704Z,78.71
2019-03-18T00:36:10.691Z,78.57
2019-03-18T00:37:10.684Z,78.57
2019-03-18T00:38:10.675Z,78.47
2019-03-18T00:39:10.664Z,78.57
2019-03-18T00:40:10.650Z,78.71
2019-03-18T00:41:10.641Z,78.57
2019-03-18T00:42:10.639Z,78.67
2019-03-18T00:43:10.625Z,78.36
2019-03-18T00:44:10.625Z,78.67
2019-03-18T00:45:15.302Z,78.26
2019-03-18T00:46:11.587Z,78.50
2019-03-18T00:47:10.590Z,78.61
2019-03-18T00:48:10.569Z,78.88
2019-03-18T00:49:10.558Z,78.88
2019-03-18T00:50:10.559Z,78.57
2019-03-18T00:51:10.539Z,78.88
2019-03-18T00:52:10.526Z,78.47
2019-03-18T00:53:10.516Z,78.61
2019-03-18T00:54:10.503Z,78.67
2019-03-18T00:55:10.498Z,78.47
2019-03-18T00:56:10.481Z,78.61
2019-03-18T00:57:10.570Z,78.78
2019-03-18T00:58:10.459Z,78.61
2019-03-18T00:59:10.452Z,79.02
2019-03-18T01:00:10.450Z,78.92
2019-03-18T01:01:10.435Z,78.92
2019-03-18T01:02:10.413Z,79.27
2019-03-18T01:03:10.409Z,79.33
2019-03-18T01:04:10.395Z,79.33
2019-03-18T01:05:10.391Z,79.58
2019-03-18T01:06:10.445Z,79.47
2019-03-18T01:07:10.371Z,79.88
2019-03-18T01:08:10.357Z,79.58
2019-03-18T01:09:10.350Z,80.40
2019-03-18T01:10:10.338Z,80.30
2019-03-18T01:11:10.324Z,80.33
2019-03-18T01:12:10.330Z,80.65
2019-03-18T01:13:10.318Z,80.54
2019-03-18T01:14:10.286Z,81.16
2019-03-18T01:15:10.296Z,81.99
2019-03-18T01:16:10.269Z,81.62
2019-03-18T01:17:10.253Z,82.03
2019-03-18T01:18:10.255Z,82.24
2019-03-18T01:19:10.273Z,82.24
2019-03-18T01:20:10.225Z,82.45
2019-03-18T01:21:10.213Z,82.39
2019-03-18T01:22:10.210Z,82.59
2019-03-18T01:23:10.209Z,83.11
2019-03-18T01:24:10.194Z,83.11
2019-03-18T01:25:10.177Z,83.22
2019-03-18T01:26:10.165Z,83.32
2019-03-18T01:27:10.156Z,83.63
2019-03-18T01:28:10.152Z,83.63
2019-03-18T01:29:10.131Z,83.84
2019-03-18T01:30:10.127Z,83.84
2019-03-18T01:31:10.109Z,83.32
2019-03-18T01:32:10.099Z,84.05
2019-03-18T01:33:10.099Z,83.94
2019-03-18T01:34:10.087Z,83.94
2019-03-18T01:35:10.079Z,84.05
2019-03-18T01:36:10.059Z,84.05
2019-03-18T01:37:10.051Z,83.84
2019-03-18T01:38:10.035Z,83.94
2019-03-18T01:39:10.029Z,83.84
2019-03-18T01:40:10.015Z,84.39
2019-03-18T01:41:10.011Z,83.98
2019-03-18T01:42:09.990Z,84.29
2019-03-18T01:43:09.981Z,84.19
2019-03-18T01:44:09.974Z,84.50
2019-03-18T01:45:09.971Z,84.39
2019-03-18T01:46:09.951Z,84.60
2019-03-18T01:47:09.947Z,84.08
2019-03-18T01:48:09.923Z,84.19
2019-03-18T01:49:09.917Z,84.60
2019-03-18T01:50:09.906Z,84.29
2019-03-18T01:51:09.891Z,84.29
2019-03-18T01:52:09.895Z,84.39
2019-03-18T01:53:09.889Z,84.50
2019-03-18T01:54:09.867Z,84.39
2019-03-18T01:55:09.861Z,84.39
2019-03-18T01:56:09.861Z,84.64
2019-03-18T01:57:09.831Z,84.64
2019-03-18T01:58:09.823Z,84.70
2019-03-18T01:59:09.807Z,84.53
2019-03-18T02:00:09.805Z,84.43
2019-03-18T02:01:09.825Z,84.74
2019-03-18T02:02:09.784Z,84.84
2019-03-18T02:03:09.769Z,84.64
2019-03-18T02:04:09.766Z,84.95
2019-03-18T02:05:09.748Z,84.84
2019-03-18T02:06:09.733Z,84.64
2019-03-18T02:07:09.722Z,84.74
2019-03-18T02:08:09.713Z,84.84
2019-03-18T02:09:09.709Z,84.74
2019-03-18T02:10:09.709Z,84.64
2019-03-18T02:11:09.683Z,84.53
2019-03-18T02:12:09.675Z,84.64
2019-03-18T02:13:09.661Z,84.53
2019-03-18T02:14:09.646Z,84.53
2019-03-18T02:15:09.655Z,84.74
2019-03-18T02:16:09.626Z,84.53
2019-03-18T02:17:09.615Z,84.53
2019-03-18T02:18:09.619Z,84.64
2019-03-18T02:19:09.631Z,84.43
2019-03-18T02:20:09.587Z,84.74
2019-03-18T02:21:09.577Z,84.95
2019-03-18T02:22:09.555Z,84.43
2019-03-18T02:23:09.552Z,84.53
2019-03-18T02:24:09.545Z,84.43
2019-03-18T02:25:09.529Z,84.53
2019-03-18T02:26:09.525Z,84.43
2019-03-18T02:27:09.501Z,84.22
2019-03-18T02:28:09.494Z,84.33
2019-03-18T02:29:09.489Z,84.12
2019-03-18T02:30:09.484Z,84.01
2019-03-18T02:31:09.464Z,84.22
2019-03-18T02:32:09.481Z,84.68
2019-03-18T02:33:09.451Z,84.43
2019-03-18T02:34:09.431Z,84.33
2019-03-18T02:35:09.425Z,84.84
2019-03-18T02:36:09.413Z,84.68
2019-03-18T02:37:09.403Z,84.58
2019-03-18T02:38:09.405Z,84.78
2019-03-18T02:39:09.378Z,84.37
2019-03-18T02:40:09.382Z,84.22
2019-03-18T02:41:09.360Z,84.53
2019-03-18T02:42:09.372Z,84.58
2019-03-18T02:43:09.349Z,84.33
2019-03-18T02:44:09.336Z,84.37
2019-03-18T02:45:09.316Z,84.05
2019-03-18T02:46:10.886Z,84.27
2019-03-18T02:47:09.294Z,84.53
2019-03-18T02:48:09.291Z,84.33
2019-03-18T02:49:09.275Z,84.01
2019-03-18T02:50:09.258Z,83.70
2019-03-18T02:51:09.252Z,83.91
2019-03-18T02:52:09.243Z,83.60
2019-03-18T02:53:09.238Z,83.39
2019-03-18T02:54:09.220Z,82.87
2019-03-18T02:55:09.233Z,83.29
2019-03-18T02:56:09.199Z,82.98
2019-03-18T02:57:09.189Z,82.87
2019-03-18T02:58:09.176Z,82.56
2019-03-18T02:59:09.165Z,82.46
2019-03-18T03:00:09.163Z,82.42
2019-03-18T03:01:09.140Z,82.63
2019-03-18T03:02:09.134Z,82.32
2019-03-18T03:03:09.119Z,82.21
2019-03-18T03:04:09.114Z,81.90
2019-03-18T03:05:09.098Z,81.70
2019-03-18T03:06:09.090Z,81.59
2019-03-18T03:07:09.078Z,81.49
2019-03-18T03:08:09.086Z,81.38
2019-03-18T03:09:09.055Z,81.80
2019-03-18T03:10:09.056Z,81.70
2019-03-18T03:11:09.037Z,81.59
2019-03-18T03:12:09.028Z,81.07
2019-03-18T03:13:09.011Z,81.07
2019-03-18T03:14:09.002Z,80.97
2019-03-18T03:15:08.986Z,81.07
2019-03-18T03:16:20.408Z,80.73
2019-03-18T03:17:09.969Z,80.52
2019-03-18T03:18:08.976Z,80.73
2019-03-18T03:19:08.952Z,80.14
2019-03-18T03:20:08.940Z,80.10
2019-03-18T03:21:08.930Z,79.90
2019-03-18T03:22:08.926Z,79.69
2019-03-18T03:23:08.921Z,79.69
2019-03-18T03:24:08.893Z,79.38
2019-03-18T03:25:08.953Z,79.48
2019-03-18T03:26:08.875Z,79.06
2019-03-18T03:27:08.876Z,78.65
2019-03-18T03:28:08.850Z,78.72
2019-03-18T03:29:08.850Z,78.86
2019-03-18T03:30:08.830Z,78.20
2019-03-18T03:31:08.826Z,78.03
2019-03-18T03:32:08.816Z,78.20
2019-03-18T03:33:08.823Z,78.75
2019-03-18T03:34:13.426Z,78.44
2019-03-18T03:35:09.824Z,78.75
2019-03-18T03:36:08.764Z,78.20
2019-03-18T03:37:08.755Z,78.13
2019-03-18T03:38:08.751Z,78.09
2019-03-18T03:39:08.734Z,77.89
2019-03-18T03:40:08.735Z,78.23
2019-03-18T03:41:08.713Z,78.13
2019-03-18T03:42:08.702Z,78.23
2019-03-18T03:43:08.692Z,78.09
2019-03-18T03:44:08.687Z,78.72
2019-03-18T03:45:08.679Z,78.61
2019-03-18T03:46:08.664Z,78.96
2019-03-18T03:47:08.657Z,78.75
2019-03-18T03:48:08.635Z,78.51
2019-03-18T03:49:08.630Z,78.55
2019-03-18T03:50:08.634Z,78.75
2019-03-18T03:51:08.619Z,78.65
2019-03-18T03:52:08.595Z,78.96
2019-03-18T03:53:08.585Z,78.75
2019-03-18T03:54:08.590Z,78.86
2019-03-18T03:55:08.563Z,78.75
2019-03-18T03:56:08.553Z,78.65
2019-03-18T03:57:08.545Z,78.51
2019-03-18T03:58:08.525Z,78.41
2019-03-18T03:59:08.521Z,78.44
2019-03-18T04:00:08.508Z,78.65
2019-03-18T04:01:08.504Z,78.75
2019-03-18T04:02:08.494Z,78.41
2019-03-18T04:03:08.484Z,78.75
2019-03-18T04:04:08.463Z,78.51
2019-03-18T04:05:08.447Z,78.34
2019-03-18T04:06:08.444Z,78.61
2019-03-18T04:07:08.485Z,78.34
2019-03-18T04:08:08.436Z,78.61
2019-03-18T04:09:08.409Z,78.75
2019-03-18T04:10:08.397Z,78.65
2019-03-18T04:11:08.994Z,78.55
2019-03-18T04:12:08.424Z,78.61
2019-03-18T04:13:08.363Z,78.86
2019-03-18T04:14:08.359Z,78.75
2019-03-18T04:15:08.340Z,78.55
2019-03-18T04:16:08.333Z,78.65
2019-03-18T04:17:08.332Z,78.61
2019-03-18T04:18:08.326Z,78.75
2019-03-18T04:19:08.312Z,78.34
2019-03-18T04:20:08.293Z,78.23
2019-03-18T04:21:08.282Z,78.30
2019-03-18T04:22:08.275Z,78.41
2019-03-18T04:23:08.256Z,78.03
2019-03-18T04:24:08.248Z,78.20
2019-03-18T04:25:08.238Z,78.09
2019-03-18T04:26:08.226Z,78.55
2019-03-18T04:27:08.215Z,78.65
2019-03-18T04:28:08.205Z,78.65
2019-03-18T04:29:08.194Z,78.65
2019-03-18T04:30:08.238Z,78.75
2019-03-18T04:31:08.188Z,78.86
2019-03-18T04:32:08.157Z,78.86
2019-03-18T04:33:08.154Z,79.06
2019-03-18T04:34:08.142Z,78.55
2019-03-18T04:35:08.136Z,78.86
2019-03-18T04:36:08.124Z,78.96
2019-03-18T04:37:08.111Z,78.44
2019-03-18T04:38:08.104Z,78.72
2019-03-18T04:39:08.083Z,78.75
2019-03-18T04:40:08.092Z,78.75
2019-03-18T04:41:08.061Z,78.65
2019-03-18T04:42:08.064Z,78.61
2019-03-18T04:43:08.048Z,78.34
2019-03-18T04:44:08.036Z,78.03
2019-03-18T04:45:08.032Z,77.99
2019-03-18T04:46:08.007Z,78.30
2019-03-18T04:47:14.117Z,78.30
2019-03-18T04:48:08.996Z,78.51
2019-03-18T04:49:07.977Z,78.41
2019-03-18T04:50:07.964Z,78.20
2019-03-18T04:51:07.955Z,78.09
2019-03-18T04:52:07.949Z,78.09
2019-03-18T04:53:07.957Z,78.20
2019-03-18T04:54:07.938Z,78.20
2019-03-18T04:55:07.909Z,78.20
2019-03-18T04:56:07.899Z,78.09
2019-03-18T04:57:07.891Z,78.30
2019-03-18T04:58:07.881Z,78.20
2019-03-18T04:59:07.886Z,78.41
2019-03-18T05:00:07.863Z,78.09
2019-03-18T05:01:07.851Z,78.72
2019-03-18T05:02:07.841Z,78.51
2019-03-18T05:03:07.833Z,78.51
2019-03-18T05:04:07.819Z,78.61
2019-03-18T05:05:07.813Z,78.51
2019-03-18T05:06:07.813Z,78.30
2019-03-18T05:07:07.787Z,78.72
2019-03-18T05:08:07.775Z,78.61
2019-03-18T05:09:07.774Z,78.51
2019-03-18T05:10:07.757Z,78.20
2019-03-18T05:11:07.743Z,78.20
2019-03-18T05:12:07.734Z,78.09
2019-03-18T05:13:07.718Z,78.72
2019-03-18T05:14:07.708Z,77.99
2019-03-18T05:15:07.699Z,78.20
2019-03-18T05:16:07.683Z,78.30
2019-03-18T05:17:07.681Z,78.30
2019-03-18T05:18:07.665Z,78.09
2019-03-18T05:19:07.657Z,78.09
2019-03-18T05:20:07.655Z,78.27
2019-03-18T05:21:07.629Z,78.16
2019-03-18T05:22:07.626Z,78.16
2019-03-18T05:23:07.609Z,78.16
2019-03-18T05:24:07.696Z,77.99
2019-03-18T05:25:07.592Z,78.06
2019-03-18T05:26:07.583Z,78.20
2019-03-18T05:27:07.571Z,77.99
2019-03-18T05:28:07.560Z,78.09
2019-03-18T05:29:07.548Z,78.51
2019-03-18T05:30:07.560Z,78.61
2019-03-18T05:31:07.525Z,78.68
2019-03-18T05:32:07.519Z,78.61
2019-03-18T05:33:07.504Z,79.03
2019-03-18T05:34:07.495Z,79.03
2019-03-18T05:35:07.480Z,78.82
2019-03-18T05:36:07.480Z,78.41
2019-03-18T05:37:07.459Z,78.72
2019-03-18T05:38:07.447Z,79.03
2019-03-18T05:39:07.446Z,78.82
2019-03-18T05:40:07.433Z,79.13
2019-03-18T05:41:07.424Z,78.82
2019-03-18T05:42:07.423Z,78.82
2019-03-18T05:43:07.407Z,78.41
2019-03-18T05:44:08.215Z,78.72
2019-03-18T05:45:07.390Z,78.30
2019-03-18T05:46:07.369Z,77.99
2019-03-18T05:47:07.362Z,78.51
2019-03-18T05:48:07.352Z,78.72
2019-03-18T05:49:07.339Z,78.78
2019-03-18T05:50:07.333Z,79.30
2019-03-18T05:51:07.311Z,78.58
2019-03-18T05:52:07.315Z,78.78
2019-03-18T05:53:07.293Z,78.61
2019-03-18T05:54:07.278Z,78.78
2019-03-18T05:55:07.271Z,78.78
2019-03-18T05:56:07.264Z,78.61
2019-03-18T05:57:07.247Z,78.72
2019-03-18T05:58:07.241Z,78.92
2019-03-18T05:59:07.229Z,78.72
2019-03-18T06:00:07.217Z,78.61
2019-03-18T06:01:07.211Z,78.92
2019-03-18T06:02:07.199Z,79.34
2019-03-18T06:03:07.187Z,79.03
2019-03-18T06:04:07.171Z,78.92
2019-03-18T06:05:07.177Z,78.92
2019-03-18T06:06:07.149Z,78.68
2019-03-18T06:07:07.149Z,78.82
2019-03-18T06:08:07.137Z,78.99
2019-03-18T06:09:07.125Z,78.58
2019-03-18T06:10:07.107Z,78.78
2019-03-18T06:11:07.097Z,78.68
2019-03-18T06:12:07.088Z,78.89
2019-03-18T06:13:07.089Z,78.68
2019-03-18T06:14:07.069Z,78.68
2019-03-18T06:15:07.089Z,78.47
2019-03-18T06:16:07.047Z,78.06
2019-03-18T06:17:07.045Z,78.37
2019-03-18T06:18:07.027Z,79.41
2019-03-18T06:19:07.018Z,81.13
2019-03-18T06:20:07.005Z,79.37
2019-03-18T06:21:06.999Z,78.33
2019-03-18T06:22:06.987Z,77.29
2019-03-18T06:23:06.976Z,77.95
2019-03-18T06:24:06.965Z,78.44
2019-03-18T06:25:06.966Z,77.61
2019-03-18T06:26:06.945Z,77.29
2019-03-18T06:27:06.927Z,76.98
2019-03-18T06:28:06.941Z,77.09
2019-03-18T06:29:06.996Z,76.78
2019-03-18T06:30:06.905Z,77.09
2019-03-18T06:31:06.883Z,77.50
2019-03-18T06:32:06.883Z,77.40
2019-03-18T06:33:06.864Z,76.98
2019-03-18T06:34:06.863Z,76.88
2019-03-18T06:35:06.842Z,76.88
2019-03-18T06:36:06.847Z,76.46
2019-03-18T06:37:06.825Z,76.26
2019-03-18T06:38:06.819Z,76.57
2019-03-18T06:39:06.814Z,76.57
2019-03-18T06:40:06.803Z,76.46
2019-03-18T06:41:06.907Z,76.36
2019-03-18T06:42:06.778Z,75.63
2019-03-18T06:43:06.761Z,76.26
2019-03-18T06:44:06.749Z,75.92
2019-03-18T06:45:06.737Z,75.95
2019-03-18T06:46:06.730Z,76.02
2019-03-18T06:47:06.718Z,76.43
2019-03-18T06:48:09.085Z,76.57
2019-03-18T06:49:06.694Z,75.95
2019-03-18T06:50:06.688Z,76.36
2019-03-18T06:51:06.683Z,76.46
2019-03-18T06:52:06.659Z,75.74
2019-03-18T06:53:06.707Z,76.05
2019-03-18T06:54:06.651Z,76.57
2019-03-18T06:55:06.633Z,76.36
2019-03-18T06:56:06.637Z,76.15
2019-03-18T06:57:06.650Z,75.92
2019-03-18T06:58:06.614Z,76.36
2019-03-18T06:59:06.608Z,76.98
2019-03-18T07:00:07.043Z,76.02
2019-03-18T07:01:06.630Z,76.88
2019-03-18T07:02:06.560Z,76.15
2019-03-18T07:03:06.549Z,76.74
2019-03-18T07:04:06.545Z,76.53
2019-03-18T07:05:06.543Z,75.92
2019-03-18T07:06:06.511Z,76.84
2019-03-18T07:07:06.501Z,76.53
2019-03-18T07:08:06.498Z,76.43
2019-03-18T07:09:06.484Z,76.23
2019-03-18T07:10:06.485Z,76.74
2019-03-18T07:11:06.457Z,75.92
2019-03-18T07:12:06.450Z,76.09
2019-03-18T07:13:06.440Z,75.57
2019-03-18T07:14:06.448Z,75.36
2019-03-18T07:15:06.419Z,75.15
2019-03-18T07:16:06.413Z,76.23
2019-03-18T07:17:06.397Z,75.71
2019-03-18T07:18:17.491Z,75.26
2019-03-18T07:19:07.393Z,74.36
2019-03-18T07:20:06.372Z,74.74
2019-03-18T07:21:06.357Z,74.84
2019-03-18T07:22:06.348Z,74.95
2019-03-18T07:23:06.339Z,74.95
2019-03-18T07:24:06.325Z,74.43
2019-03-18T07:25:06.309Z,74.32
2019-03-18T07:26:06.309Z,74.12
2019-03-18T07:27:06.290Z,74.22
2019-03-18T07:28:06.293Z,74.19
2019-03-18T07:29:06.275Z,74.29
2019-03-18T07:30:06.262Z,73.88
2019-03-18T07:31:06.248Z,73.57
2019-03-18T07:32:06.241Z,73.12
2019-03-18T07:33:06.233Z,73.02
2019-03-18T07:34:06.215Z,73.54
2019-03-18T07:35:06.217Z,73.64
2019-03-18T07:36:06.197Z,73.22
2019-03-18T07:37:06.207Z,71.84
2019-03-18T07:38:06.252Z,72.98
2019-03-18T07:39:06.201Z,72.57
2019-03-18T07:40:06.155Z,72.98
2019-03-18T07:41:06.142Z,72.88
2019-03-18T07:42:06.130Z,72.26
2019-03-18T07:43:06.118Z,72.05
2019-03-18T07:44:06.107Z,72.36
2019-03-18T07:45:06.101Z,71.43
2019-03-18T07:46:06.090Z,71.02
2019-03-18T07:47:06.074Z,71.33
2019-03-18T07:48:06.715Z,71.95
2019-03-18T07:49:06.059Z,71.50
2019-03-18T07:50:06.053Z,71.09
2019-03-18T07:51:06.035Z,70.98
2019-03-18T07:52:06.023Z,71.09
2019-03-18T07:53:06.013Z,70.67
2019-03-18T07:54:06.009Z,70.67
2019-03-18T07:55:05.995Z,71.19
2019-03-18T07:56:05.989Z,71.16
2019-03-18T07:57:06.002Z,70.85
2019-03-18T07:58:05.965Z,71.19
2019-03-18T07:59:05.956Z,71.19
2019-03-18T08:00:05.963Z,70.67
2019-03-18T08:01:05.929Z,70.92
2019-03-18T08:02:05.913Z,71.53
2019-03-18T08:03:05.906Z,71.30
2019-03-18T08:04:05.895Z,71.30
2019-03-18T08:05:05.883Z,71.40
2019-03-18T08:06:05.948Z,71.30
2019-03-18T08:07:05.862Z,71.19
2019-03-18T08:08:05.847Z,71.98
2019-03-18T08:09:05.844Z,71.26
2019-03-18T08:10:05.827Z,70.88
2019-03-18T08:11:05.828Z,70.78
2019-03-18T08:12:05.811Z,71.30
2019-03-18T08:13:05.817Z,70.78
2019-03-18T08:14:05.785Z,70.47
2019-03-18T08:15:05.781Z,71.06
2019-03-18T08:16:05.763Z,71.47
2019-03-18T08:17:05.761Z,71.67
2019-03-18T08:18:05.755Z,71.06
2019-03-18T08:19:05.739Z,70.09
2019-03-18T08:20:05.730Z,70.61
2019-03-18T08:21:05.711Z,70.09
2019-03-18T08:22:05.703Z,70.09
2019-03-18T08:23:05.688Z,69.89
2019-03-18T08:24:05.690Z,70.09
2019-03-18T08:25:05.667Z,69.89
2019-03-18T08:26:05.665Z,70.51
2019-03-18T08:27:05.655Z,70.64
2019-03-18T08:28:05.646Z,70.43
2019-03-18T08:29:05.637Z,70.23
2019-03-18T08:30:05.623Z,70.33
2019-03-18T08:31:05.603Z,70.75
2019-03-18T08:32:05.603Z,70.33
2019-03-18T08:33:05.585Z,70.09
2019-03-18T08:34:05.591Z,70.43
2019-03-18T08:35:05.568Z,70.72
2019-03-18T08:36:05.585Z,70.43
2019-03-18T08:37:05.546Z,70.82
2019-03-18T08:38:05.535Z,70.40
2019-03-18T08:39:05.524Z,70.20
2019-03-18T08:40:05.509Z,70.82
2019-03-18T08:41:05.499Z,70.09
2019-03-18T08:42:05.499Z,69.68
2019-03-18T08:43:05.479Z,69.99
2019-03-18T08:44:05.466Z,70.20
2019-03-18T08:45:05.458Z,70.20
2019-03-18T08:46:05.448Z,69.89
2019-03-18T08:47:05.439Z,69.48
2019-03-18T08:48:05.431Z,70.20
2019-03-18T08:49:05.431Z,70.09
2019-03-18T08:50:05.408Z,69.48
2019-03-18T08:51:05.421Z,69.17
2019-03-18T08:52:05.385Z,69.78
2019-03-18T08:53:05.380Z,69.37
2019-03-18T08:54:05.364Z,69.68
2019-03-18T08:55:05.388Z,70.30
2019-03-18T08:56:05.419Z,70.51
2019-03-18T08:57:05.345Z,70.30
2019-03-18T08:58:05.324Z,69.78
2019-03-18T08:59:05.337Z,70.51
2019-03-18T09:00:05.299Z,70.40
2019-03-18T09:01:05.291Z,70.20
2019-03-18T09:02:05.358Z,70.51
2019-03-18T09:03:05.266Z,70.09
2019-03-18T09:04:05.260Z,70.20
2019-03-18T09:05:05.267Z,70.40
2019-03-18T09:06:05.241Z,69.71
2019-03-18T09:07:05.225Z,70.23
2019-03-18T09:08:05.217Z,69.99
2019-03-18T09:09:05.225Z,69.89
2019-03-18T09:10:05.195Z,70.30
2019-03-18T09:11:05.194Z,70.09
2019-03-18T09:12:05.181Z,70.09
2019-03-18T09:13:05.166Z,69.68
2019-03-18T09:14:05.151Z,69.78
2019-03-18T09:15:05.141Z,69.99
2019-03-18T09:16:05.132Z,70.17
2019-03-18T09:17:05.123Z,69.54
2019-03-18T09:18:05.103Z,69.34
2019-03-18T09:19:08.933Z,69.93
2019-03-18T09:20:05.085Z,69.10
2019-03-18T09:21:05.083Z,69.69
2019-03-18T09:22:05.067Z,68.76
2019-03-18T09:23:05.048Z,68.55
2019-03-18T09:24:05.044Z,67.60
2019-03-18T09:25:05.031Z,68.01
2019-03-18T09:26:05.026Z,67.70
2019-03-18T09:27:05.007Z,67.39
2019-03-18T09:28:05.005Z,67.29
2019-03-18T09:29:04.991Z,66.97
2019-03-18T09:30:04.977Z,65.65
2019-03-18T09:31:05.071Z,63.02
2019-03-18T09:32:05.007Z,61.33
2019-03-18T09:33:04.971Z,55.38
2019-03-18T09:34:04.936Z,54.90
2019-03-18T09:35:04.936Z,52.91
2019-03-18T09:36:04.915Z,50.18
2019-03-18T09:37:04.902Z,50.14
2019-03-18T09:38:04.893Z,48.49
2019-03-18T09:39:04.881Z,50.61
2019-03-18T09:40:04.869Z,52.22
2019-03-18T09:41:04.858Z,49.73
2019-03-18T09:42:04.843Z,53.36
2019-03-18T09:43:04.837Z,56.54
2019-03-18T09:44:04.828Z,58.84
2019-03-18T09:45:04.817Z,59.52
2019-03-18T09:46:04.803Z,61.42
2019-03-18T09:47:04.793Z,61.79
2019-03-18T09:48:04.786Z,62.71
2019-03-18T09:49:04.782Z,63.49
2019-03-18T09:50:04.789Z,64.00
2019-03-18T09:51:04.747Z,63.69
2019-03-18T09:52:04.733Z,64.54
2019-03-18T09:53:04.737Z,64.89
2019-03-18T09:54:04.731Z,65.81
2019-03-18T09:55:04.709Z,65.40
2019-03-18T09:56:04.698Z,65.43
2019-03-18T09:57:04.685Z,65.74
2019-03-18T09:58:04.683Z,66.77
2019-03-18T09:59:04.667Z,66.87
2019-03-18T10:00:04.665Z,66.67
2019-03-18T10:01:04.647Z,67.29
2019-03-18T10:02:04.635Z,67.08
2019-03-18T10:03:04.616Z,67.00
2019-03-18T10:04:04.609Z,67.29
2019-03-18T10:05:04.603Z,67.60
2019-03-18T10:06:04.602Z,68.11
2019-03-18T10:07:04.591Z,67.73
2019-03-18T10:08:04.566Z,67.80
2019-03-18T10:09:04.557Z,67.70
2019-03-18T10:10:04.551Z,68.01
2019-03-18T10:11:04.536Z,67.49
2019-03-18T10:12:04.540Z,67.60
2019-03-18T10:13:04.537Z,67.60
2019-03-18T10:14:04.505Z,67.60
2019-03-18T10:15:04.491Z,67.49
2019-03-18T10:16:04.497Z,67.21
2019-03-18T10:17:09.568Z,67.73
2019-03-18T10:18:05.461Z,67.32
2019-03-18T10:19:04.516Z,67.73
2019-03-18T10:20:04.441Z,67.32
2019-03-18T10:21:04.435Z,67.63
2019-03-18T10:22:04.418Z,68.04
2019-03-18T10:23:04.466Z,67.83
2019-03-18T10:24:04.420Z,67.80
2019-03-18T10:25:04.596Z,67.29
2019-03-18T10:26:04.369Z,66.40
2019-03-18T10:27:04.361Z,66.37
2019-03-18T10:28:04.348Z,65.55
2019-03-18T10:29:04.354Z,65.55
2019-03-18T10:30:04.329Z,65.55
2019-03-18T10:31:04.320Z,65.55
2019-03-18T10:32:04.309Z,67.60
2019-03-18T10:33:04.305Z,67.81
2019-03-18T10:34:04.291Z,66.37
2019-03-18T10:35:04.297Z,65.44
2019-03-18T10:36:04.279Z,64.00
2019-03-18T10:37:04.253Z,64.00
2019-03-18T10:38:04.245Z,65.13
2019-03-18T10:39:04.239Z,65.44
2019-03-18T10:40:04.238Z,66.67
2019-03-18T10:41:04.225Z,66.30
2019-03-18T10:42:04.205Z,66.50
2019-03-18T10:43:04.195Z,66.67
2019-03-18T10:44:04.181Z,65.65
2019-03-18T10:45:04.176Z,65.55
2019-03-18T10:46:04.170Z,65.20
2019-03-18T10:47:04.156Z,65.34
2019-03-18T10:48:04.147Z,65.34
2019-03-18T10:49:04.136Z,65.55
2019-03-18T10:50:04.122Z,66.88
2019-03-18T10:51:04.108Z,66.88
2019-03-18T10:52:04.137Z,65.34
2019-03-18T10:53:04.087Z,65.55
2019-03-18T10:54:04.107Z,65.75
2019-03-18T10:55:04.067Z,66.81
2019-03-18T10:56:08.159Z,66.58
2019-03-18T10:57:04.063Z,65.86
2019-03-18T10:58:04.046Z,65.75
2019-03-18T10:59:04.028Z,65.75
2019-03-18T11:00:04.017Z,65.13
2019-03-18T11:01:03.997Z,66.37
2019-03-18T11:02:03.991Z,65.52
2019-03-18T11:03:03.992Z,64.59
2019-03-18T11:04:03.982Z,64.07
2019-03-18T11:05:03.959Z,65.00
2019-03-18T11:06:03.949Z,64.59
2019-03-18T11:07:03.938Z,63.53
2019-03-18T11:08:03.935Z,63.12
2019-03-18T11:09:03.917Z,63.84
2019-03-18T11:10:03.905Z,64.15
2019-03-18T11:11:03.896Z,63.12
2019-03-18T11:12:03.888Z,62.81
2019-03-18T11:13:03.883Z,62.30
2019-03-18T11:14:03.870Z,63.05
2019-03-18T11:15:03.863Z,61.91
2019-03-18T11:16:03.848Z,62.12
2019-03-18T11:17:03.836Z,61.91
2019-03-18T11:18:03.825Z,62.43
2019-03-18T11:19:03.809Z,62.87
2019-03-18T11:20:03.818Z,62.77
2019-03-18T11:21:03.799Z,63.28
2019-03-18T11:22:03.779Z,63.07
2019-03-18T11:23:03.775Z,62.87
2019-03-18T11:24:03.757Z,63.59
2019-03-18T11:25:03.747Z,63.49
2019-03-18T11:26:03.741Z,64.62
2019-03-18T11:27:03.724Z,64.62
2019-03-18T11:28:03.717Z,65.23
2019-03-18T11:29:05.866Z,65.95
2019-03-18T11:30:03.717Z,66.16
2019-03-18T11:31:03.677Z,66.50
2019-03-18T11:32:03.683Z,67.22
2019-03-18T11:33:03.672Z,67.30
2019-03-18T11:34:03.650Z,65.52
2019-03-18T11:35:03.641Z,65.41
2019-03-18T11:36:03.639Z,65.11
2019-03-18T11:37:03.619Z,66.64
2019-03-18T11:38:03.621Z,65.72
2019-03-18T11:39:03.598Z,64.79
2019-03-18T11:40:03.590Z,63.46
2019-03-18T11:41:03.578Z,63.67
2019-03-18T11:42:03.579Z,65.20
2019-03-18T11:43:03.577Z,63.97
2019-03-18T11:44:03.557Z,63.35
2019-03-18T11:45:03.536Z,63.56
2019-03-18T11:46:03.524Z,63.76
2019-03-18T11:47:03.521Z,64.48
2019-03-18T11:48:03.504Z,63.46
2019-03-18T11:49:03.493Z,63.12
2019-03-18T11:50:10.838Z,63.94
2019-03-18T11:51:04.495Z,62.71
2019-03-18T11:52:03.465Z,61.79
2019-03-18T11:53:13.859Z,62.51
2019-03-18T11:54:04.442Z,62.12
2019-03-18T11:55:03.458Z,61.61
2019-03-18T11:56:03.465Z,61.68
2019-03-18T11:57:03.409Z,62.71
2019-03-18T11:58:03.403Z,61.44
2019-03-18T11:59:03.394Z,62.99
2019-03-18T12:00:03.394Z,61.17
2019-03-18T12:01:03.374Z,61.79
2019-03-18T12:02:03.356Z,62.92
2019-03-18T12:03:03.347Z,62.09
2019-03-18T12:04:03.331Z,61.68
2019-03-18T12:05:03.330Z,61.76
2019-03-18T12:06:03.345Z,61.04
2019-03-18T12:07:03.301Z,60.08
2019-03-18T12:08:03.289Z,59.67
2019-03-18T12:09:03.290Z,59.20
2019-03-18T12:10:03.275Z,57.43
2019-03-18T12:11:03.263Z,58.12
2019-03-18T12:12:03.250Z,56.67
2019-03-18T12:13:03.241Z,56.26
2019-03-18T12:14:03.238Z,56.05
2019-03-18T12:15:03.224Z,55.92
2019-03-18T12:16:03.209Z,56.92
2019-03-18T12:17:03.203Z,55.51
2019-03-18T12:18:03.204Z,55.82
2019-03-18T12:19:03.172Z,56.97
2019-03-18T12:20:03.171Z,57.31
2019-03-18T12:21:03.161Z,56.67
2019-03-18T12:22:03.142Z,56.87
2019-03-18T12:23:03.132Z,57.51
2019-03-18T12:24:03.113Z,56.84
2019-03-18T12:25:03.109Z,57.64
2019-03-18T12:26:03.101Z,58.97
2019-03-18T12:27:03.089Z,58.43
2019-03-18T12:28:05.177Z,58.53
2019-03-18T12:29:03.090Z,56.79
2019-03-18T12:30:03.051Z,57.74
2019-03-18T12:31:03.039Z,57.87
2019-03-18T12:32:03.047Z,58.00
2019-03-18T12:33:03.020Z,58.69
2019-03-18T12:34:03.022Z,57.64
2019-03-18T12:35:02.996Z,57.35
2019-03-18T12:36:02.985Z,56.84
2019-03-18T12:37:02.978Z,56.71
2019-03-18T12:38:02.965Z,56.74
2019-03-18T12:39:02.955Z,57.76
2019-03-18T12:40:02.955Z,58.17
2019-03-18T12:41:02.929Z,58.86
2019-03-18T12:42:02.940Z,56.79
2019-03-18T12:43:02.916Z,56.56
2019-03-18T12:44:02.905Z,56.35
2019-03-18T12:45:02.902Z,56.87
2019-03-18T12:46:02.892Z,57.40
2019-03-18T12:47:02.866Z,58.35
2019-03-18T12:48:02.862Z,59.23
2019-03-18T12:49:02.853Z,60.49
2019-03-18T12:50:03.118Z,60.41
2019-03-18T12:51:02.837Z,61.02
2019-03-18T12:52:02.822Z,61.95